Time;durP1;ratioP1;P1;durP2;ratioP2;P2;SDS_P1;SDS_P2;PMS_P1;PMS_P2;Temp;Humidity;BMP_temperature;BMP_pressure;BME280_temperature;BME280_humidity;BME280_pressure;Samples;Min_cycle;Max_cycle;Signal;HPM_P1;HPM_P2
2022/09/20 00:01:40;;;;;;;30.65;28.95;;;;;;;12.79;100.00;101022.91;5052801;28;20049;-82
2022/09/20 00:04:13;;;;;;;29.80;28.20;;;;;;;12.90;100.00;101031.28;5052397;28;20122;-81
2022/09/20 00:06:53;;;;;;;30.88;29.17;;;;;;;13.51;100.00;101030.69;5052974;28;20478;-84
2022/09/20 00:09:20;;;;;;;31.08;29.48;;;;;;;12.92;100.00;101031.84;5055122;28;20041;-81
2022/09/20 00:11:48;;;;;;;31.45;29.95;;;;;;;12.44;100.00;101024.31;5062261;28;20482;-82
2022/09/20 00:14:15;;;;;;;31.38;29.67;;;;;;;12.61;100.00;101028.13;5057274;28;20071;-81
2022/09/20 00:16:43;;;;;;;30.85;29.25;;;;;;;12.44;100.00;101024.31;5056776;28;20438;-84
2022/09/20 00:19:19;;;;;;;30.85;29.30;;;;;;;12.42;100.00;101026.34;5056723;28;20055;-81
2022/09/20 00:21:46;;;;;;;29.88;28.38;;;;;;;12.11;100.00;101022.56;5043320;28;20383;-81
2022/09/20 00:24:14;;;;;;;30.42;28.73;;;;;;;12.51;100.00;101014.44;5056518;28;20107;-81
2022/09/20 00:26:56;;;;;;;29.40;27.90;;;;;;;12.98;100.00;101017.69;5056420;28;20142;-84
2022/09/20 00:29:25;;;;;;;29.65;27.95;;;;;;;12.13;100.00;101017.81;5056771;28;20535;-80
2022/09/20 00:31:53;;;;;;;31.35;29.55;;;;;;;12.32;100.00;101011.63;5056134;28;20106;-81
2022/09/20 00:37:10;;;;;;;30.73;29.23;;;;;;;12.36;100.00;101018.16;5047163;28;20102;-82
2022/09/20 00:39:40;;;;;;;31.55;30.05;;;;;;;12.14;100.00;101016.81;5056381;28;20049;-83
2022/09/20 00:42:13;;;;;;;30.02;28.42;;;;;;;12.99;100.00;101014.81;5056133;28;20126;-82
2022/09/20 00:44:55;;;;;;;30.13;28.52;;;;;;;12.10;100.00;101028.88;5055131;28;20053;-80
2022/09/20 00:47:28;;;;;;;31.20;29.70;;;;;;;12.70;100.00;101026.84;5053061;28;20053;-79
2022/09/20 00:49:58;;;;;;;;;;;;;;;12.14;100.00;101024.81;5052438;28;20456;-80
2022/09/20 00:52:25;;;;;;;29.98;28.27;;;;;;;12.88;100.00;101028.81;5055478;28;19920;-82
2022/09/20 00:55:00;;;;;;;32.15;30.55;;;;;;;12.36;100.00;101026.16;5054613;28;20122;-84
2022/09/20 00:57:27;;;;;;;31.38;29.77;;;;;;;11.93;100.00;101025.88;5053105;28;20041;-82
2022/09/20 00:59:54;;;;;;;32.53;30.92;;;;;;;11.69;100.00;101024.63;5053338;28;20049;-81
2022/09/20 01:02:27;;;;;;;32.00;30.40;;;;;;;12.32;100.00;101016.97;5054614;28;20052;-80
2022/09/20 01:05:00;;;;;;;33.83;31.60;;;;;;;11.77;100.00;101011.13;5054935;28;20049;-85
2022/09/20 01:07:28;;;;;;;33.28;31.58;;;;;;;11.79;100.00;101013.56;5054752;28;20045;-84
2022/09/20 01:10:00;;;;;;;31.80;30.20;;;;;;;12.01;100.00;100999.03;5056071;28;20063;-81
2022/09/20 01:12:30;;;;;;;33.13;31.52;;;;;;;11.99;100.00;100995.75;5055592;28;20049;-81
2022/09/20 01:15:03;;;;;;;32.47;30.88;;;;;;;11.83;100.00;100993.47;5054762;28;20106;-82
2022/09/20 01:17:41;;;;;;;33.42;31.73;;;;;;;12.12;100.00;100987.72;5055133;28;20423;-82
2022/09/20 01:20:18;;;;;;;34.83;33.17;;;;;;;11.94;100.00;100984.91;5054987;28;20466;-84
2022/09/20 01:23:02;;;;;;;32.28;30.58;;;;;;;12.01;100.00;100974.25;5054701;28;20049;-82
2022/09/20 01:25:55;;;;;;;32.83;30.85;;;;;;;11.90;100.00;100979.19;5052462;28;20129;-84
2022/09/20 01:28:27;;;;;;;31.27;29.58;;;;;;;11.71;100.00;100980.03;5054425;28;20056;-85
2022/09/20 01:31:10;;;;;;;31.90;30.00;;;;;;;12.21;100.00;100985.66;5055302;28;20103;-83
2022/09/20 01:33:47;;;;;;;32.50;30.75;;;;;;;12.41;100.00;100982.94;5054112;28;20802;-80
2022/09/20 01:36:30;;;;;;;33.17;31.58;;;;;;;11.69;100.00;100979.41;5053488;28;20118;-83
2022/09/20 01:39:11;;;;;;;32.50;30.98;;;;;;;11.70;100.00;100986.34;5054545;28;20120;-82
2022/09/20 01:41:46;;;;;;;33.67;32.05;;;;;;;11.61;100.00;100975.09;5054685;28;20106;-80
2022/09/20 01:44:36;;;;;;;32.90;31.25;;;;;;;11.61;100.00;100991.06;5054538;28;20056;-84
2022/09/20 01:47:15;;;;;;;34.28;32.65;;;;;;;11.64;100.00;100987.16;5054516;28;20059;-81
2022/09/20 01:49:55;;;;;;;32.22;30.63;;;;;;;12.12;100.00;100987.72;5054501;28;20060;-82
2022/09/20 01:52:43;;;;;;;31.45;29.95;;;;;;;12.31;100.00;100994.00;5054606;28;20053;-80
2022/09/20 01:55:57;;;;;;;31.13;29.27;;;;;;;11.77;100.00;100995.16;5053860;28;20126;-83
2022/09/20 01:59:00;;;;;;;32.50;30.80;;;;;;;11.67;100.00;100992.88;5054804;28;20052;-81
2022/09/20 02:06:02;;;;;;;32.28;30.67;;;;;;;11.69;100.00;100988.19;4981086;28;20053;-80
2022/09/20 02:12:30;;;;;;;33.92;32.20;;;;;;;11.36;100.00;100982.88;4973590;28;20062;-79
2022/09/20 02:15:19;;;;;;;38.83;36.83;;;;;;;11.48;100.00;100987.59;4991431;28;20139;-79
2022/09/20 02:18:25;;;;;;;34.70;32.92;;;;;;;11.52;100.00;100988.81;4993709;28;20509;-80
2022/09/20 02:24:00;;;;;;;34.05;32.35;;;;;;;12.14;100.00;100993.66;4995852;28;20053;-79
2022/09/20 02:26:45;;;;;;;34.60;32.80;;;;;;;11.88;100.00;100997.19;4992448;28;20038;-79
2022/09/20 02:29:33;;;;;;;31.88;30.25;;;;;;;11.55;100.00;100999.03;4995575;28;20129;-79
2022/09/20 02:36:01;;;;;;;32.90;31.20;;;;;;;11.77;100.00;100997.81;4883985;29;20048;-79
2022/09/20 02:39:37;;;;;;;;;;;;;;;;;;;;;
2022/09/20 02:42:57;;;;;;;32.35;30.65;;;;;;;11.18;100.00;101011.91;4997168;28;20053;-79
2022/09/20 02:53:01;;;;;;;32.60;30.88;;;;;;;12.48;100.00;101001.53;4918923;29;20560;-78
2022/09/20 02:59:03;;;;;;;;;;;;;;;11.76;100.00;101004.16;4850674;29;20056;-80
2022/09/20 03:05:13;;;;;;;33.65;31.73;;;;;;;11.55;100.00;101009.69;4974261;28;20058;-80
2022/09/20 03:08:21;;;;;;;32.63;30.90;;;;;;;12.02;100.00;101010.50;5000394;28;20073;-79
2022/09/20 03:11:28;;;;;;;35.63;33.78;;;;;;;11.02;100.00;101014.97;4940748;29;20110;-80
2022/09/20 03:14:26;;;;;;;;;;;;;;;;;;;;;
2022/09/20 03:17:18;;;;;;;34.58;32.88;;;;;;;11.56;100.00;101006.84;4945406;29;20043;-81
2022/09/20 03:20:25;;;;;;;34.08;32.20;;;;;;;11.44;100.00;101003.16;4947739;28;20055;-80
2022/09/20 03:23:30;;;;;;;33.63;31.75;;;;;;;11.94;100.00;101008.88;4967838;28;20061;-81
2022/09/20 03:26:24;;;;;;;35.33;33.42;;;;;;;13.00;100.00;101000.44;4936586;28;20061;-79
2022/09/20 03:29:14;;;;;;;37.78;35.78;;;;;;;13.64;100.00;101003.06;4991909;28;20471;-79
2022/09/20 03:32:12;;;;;;;34.22;32.40;;;;;;;13.16;100.00;101006.28;4991707;28;20137;-83
2022/09/20 03:35:03;;;;;;;34.75;32.85;;;;;;;12.58;100.00;101007.22;4989242;28;20141;-81
2022/09/20 03:38:07;;;;;;;34.35;32.55;;;;;;;11.39;100.00;101009.06;4988876;28;20046;-79
2022/09/20 03:41:30;;;;;;;33.28;31.48;;;;;;;11.90;100.00;101007.66;5003047;28;20060;-82
2022/09/20 03:44:24;;;;;;;34.95;33.15;;;;;;;12.64;100.00;101011.72;4990015;28;20050;-82
2022/09/20 03:47:27;;;;;;;38.38;36.38;;;;;;;13.08;100.00;101010.03;4998112;28;20104;-79
2022/09/20 03:50:15;;;;;;;55.92;52.63;;;;;;;12.33;100.00;101010.59;4998039;28;20058;-81
2022/09/20 03:53:15;;;;;;;55.08;51.78;;;;;;;11.48;100.00;101016.84;4992951;28;20050;-79
2022/09/20 03:56:12;;;;;;;59.13;55.25;;;;;;;12.18;100.00;101003.91;5002712;28;20049;-79
2022/09/20 03:59:06;;;;;;;62.92;57.92;;;;;;;12.20;100.00;101013.31;4998802;28;20070;-79
2022/09/20 04:02:03;;;;;;;64.10;59.00;;;;;;;11.69;100.00;101019.31;4986044;28;20046;-79
2022/09/20 04:05:09;;;;;;;;;;;;;;;;;;;;;
2022/09/20 04:08:25;;;;;;;32.70;30.50;;;;;;;11.92;100.00;101024.22;4998903;28;20496;-79
2022/09/20 04:11:42;;;;;;;;;;;;;;;;;;;;;
2022/09/20 04:14:53;;;;;;;31.00;28.90;;;;;;;11.48;100.00;101020.34;4994600;28;20070;-81
2022/09/20 04:21:12;;;;;;;30.70;28.80;;;;;;;12.42;100.00;101037.00;4990490;28;20046;-80
2022/09/20 04:24:11;;;;;;;30.63;28.75;;;;;;;11.82;100.00;101045.09;4995648;28;20054;-82
2022/09/20 04:27:03;;;;;;;30.02;28.23;;;;;;;12.09;100.00;101033.41;4987030;28;20054;-80
2022/09/20 04:29:44;;;;;;;30.52;28.83;;;;;;;11.21;100.00;101043.41;5002532;28;20117;-80
2022/09/20 04:32:22;;;;;;;30.80;29.00;;;;;;;12.16;100.00;101046.69;4989889;28;20050;-81
2022/09/20 04:38:04;;;;;;;31.00;29.25;;;;;;;12.30;100.00;101042.16;4991868;28;20052;-79
2022/09/20 04:40:57;;;;;;;31.98;30.20;;;;;;;11.50;100.00;101049.38;4997999;28;20062;-82
2022/09/20 04:44:01;;;;;;;33.03;31.23;;;;;;;11.79;100.00;101061.47;4990924;28;20056;-81
2022/09/20 04:47:24;;;;;;;;;;;;;;;;;;;;;
2022/09/20 04:50:49;;;;;;;31.48;29.77;;;;;;;12.38;100.00;101056.09;4946798;29;20055;-79
2022/09/20 04:54:10;;;;;;;;;;;;;;;;;;;;;
2022/09/20 04:57:09;;;;;;;31.25;29.35;;;;;;;12.27;100.00;101054.06;4931920;29;20068;-80
2022/09/20 05:00:05;;;;;;;32.13;30.33;;;;;;;12.29;100.00;101059.19;4951516;28;20513;-80
2022/09/20 05:03:09;;;;;;;31.75;29.85;;;;;;;11.36;100.00;101051.22;4993824;28;20137;-79
2022/09/20 05:06:14;;;;;;;32.40;30.27;;;;;;;11.45;100.00;101060.63;4988025;28;20058;-79
2022/09/20 05:09:37;;;;;;;32.65;30.60;;;;;;;12.11;100.00;101063.31;4924841;28;20056;-81
2022/09/20 05:12:56;;;;;;;32.20;30.30;;;;;;;12.72;100.00;101055.97;4993785;28;20060;-80
2022/09/20 05:15:54;;;;;;;32.22;30.35;;;;;;;11.87;100.00;101071.94;4975647;28;20054;-79
2022/09/20 05:19:02;;;;;;;31.23;29.52;;;;;;;12.29;100.00;101075.97;4989159;28;20050;-78
2022/09/20 05:22:06;;;;;;;36.78;34.63;;;;;;;12.40;100.00;101071.03;4991102;28;20042;-80
2022/09/20 05:25:45;;;;;;;;;;;;;;;;;;;;;
2022/09/20 05:32:12;;;;;;;34.60;32.80;;;;;;;13.13;100.00;101081.38;4949828;29;20062;-82
2022/09/20 05:35:09;;;;;;;33.38;31.48;;;;;;;12.17;100.00;101077.66;4951071;29;20134;-81
2022/09/20 05:37:59;;;;;;;35.00;33.10;;;;;;;11.33;100.00;101089.66;4944716;29;20054;-80
2022/09/20 05:40:50;;;;;;;33.70;31.88;;;;;;;13.56;100.00;101089.56;4954098;29;20555;-81
2022/09/20 05:43:43;;;;;;;38.72;36.83;;;;;;;12.63;100.00;101090.03;4953556;29;20459;-79
2022/09/20 05:47:12;;;;;;;;;;;;;;;;;;;;;
2022/09/20 05:50:21;;;;;;;;;;;;;;;;;;;;;
2022/09/20 05:52:57;;;;;;;36.35;34.35;;;;;;;12.51;100.00;101089.84;4878866;29;20067;-82
2022/09/20 05:56:04;;;;;;;36.45;34.63;;;;;;;12.99;100.00;101097.47;4972493;28;20042;-77
2022/09/20 05:59:10;;;;;;;37.85;35.75;;;;;;;13.44;100.00;101094.78;4994220;28;20209;-80
2022/09/20 06:05:25;;;;;;;34.65;32.83;;;;;;;13.08;100.00;101100.72;4987096;28;20057;-81
2022/09/20 06:08:32;;;;;;;34.78;32.70;;;;;;;14.43;100.00;101089.59;5004306;28;20401;-80
2022/09/20 06:11:10;;;;;;;35.75;33.95;;;;;;;13.65;100.00;101103.47;4982229;28;20094;-78
2022/09/20 06:14:09;;;;;;;32.63;30.83;;;;;;;13.32;100.00;101101.84;4983380;28;20106;-77
2022/09/20 06:16:45;;;;;;;33.38;31.52;;;;;;;14.24;100.00;101109.31;4992357;28;20117;-81
2022/09/20 06:19:21;;;;;;;33.92;32.03;;;;;;;14.51;100.00;101109.88;4987832;28;20058;-81
2022/09/20 06:21:58;;;;;;;33.75;31.90;;;;;;;14.94;100.00;101117.00;4987452;28;20058;-78
2022/09/20 06:24:39;;;;;;;36.78;34.78;;;;;;;13.46;100.00;101121.22;4989027;28;20053;-81
2022/09/20 06:27:10;;;;;;;36.63;34.55;;;;;;;14.32;100.00;101125.09;5003425;28;20444;-80
2022/09/20 06:29:44;;;;;;;35.07;33.27;;;;;;;13.63;100.00;101122.34;4988256;28;20053;-79
2022/09/20 06:32:15;;;;;;;35.47;33.58;;;;;;;14.50;100.00;101119.75;4993603;28;20823;-78
2022/09/20 06:34:46;;;;;;;35.78;34.03;;;;;;;13.64;100.00;101128.50;4993866;28;20379;-81
2022/09/20 06:43:13;;;;;;;33.90;32.20;;;;;;;14.00;100.00;101127.81;4988883;28;20058;-80
2022/09/20 06:45:44;;;;;;;33.35;31.45;;;;;;;14.62;100.00;101125.22;4998158;28;20086;-80
2022/09/20 06:48:14;;;;;;;33.05;30.90;;;;;;;14.20;100.00;101133.00;4988499;28;20137;-78
2022/09/20 06:50:44;;;;;;;34.53;32.70;;;;;;;14.81;100.00;101132.19;4992722;28;20050;-80
2022/09/20 06:53:18;;;;;;;34.13;32.35;;;;;;;15.28;100.00;101124.41;4998846;28;20517;-81
2022/09/20 06:55:50;;;;;;;36.17;34.38;;;;;;;14.64;100.00;101133.81;4991686;28;20078;-81
2022/09/20 06:58:17;;;;;;;32.22;30.52;;;;;;;14.61;100.00;101134.25;4998200;28;20046;-78
2022/09/20 07:00:44;;;;;;;33.20;31.35;;;;;;;14.65;100.00;101135.47;4997894;28;20044;-81
2022/09/20 07:03:13;;;;;;;34.15;32.35;;;;;;;14.47;100.00;101138.09;4991300;28;20047;-78
2022/09/20 07:05:40;;;;;;;34.40;32.60;;;;;;;14.52;100.00;101139.06;4992621;28;20058;-79
2022/09/20 07:08:11;;;;;;;33.40;31.63;;;;;;;14.07;100.00;101149.13;4993771;28;20106;-80
2022/09/20 07:10:44;;;;;;;32.60;30.80;;;;;;;14.51;100.00;101134.78;4994927;28;20053;-80
2022/09/20 07:13:21;;;;;;;32.80;31.00;;;;;;;14.07;100.00;101136.63;4990107;28;20462;-82
2022/09/20 07:15:48;;;;;;;34.65;32.70;;;;;;;15.14;100.00;101127.47;4991908;28;20399;-79
2022/09/20 07:18:17;;;;;;;36.10;33.95;;;;;;;13.77;100.00;101143.59;4994761;28;20046;-79
2022/09/20 07:20:44;;;;;;;37.90;35.97;;;;;;;15.40;100.00;101135.16;4994998;28;20471;-80
2022/09/20 07:23:11;;;;;;;37.88;35.97;;;;;;;14.90;100.00;101146.06;4995872;28;20064;-79
2022/09/20 07:25:38;;;;;;;39.15;37.22;;;;;;;14.60;100.00;101148.66;4997650;28;20065;-81
2022/09/20 07:28:07;;;;;;;36.95;35.15;;;;;;;16.20;100.00;101140.09;4987861;28;20494;-80
2022/09/20 07:30:35;;;;;;;41.08;38.97;;;;;;;15.12;100.00;101135.72;4993726;28;20050;-82
2022/09/20 07:33:04;;;;;;;39.97;38.08;;;;;;;14.38;100.00;101150.91;5003555;28;20111;-81
2022/09/20 07:35:31;;;;;;;36.08;34.08;;;;;;;14.63;100.00;101145.56;5004319;28;20116;-81
2022/09/20 07:37:59;;;;;;;35.60;33.80;;;;;;;15.66;100.00;101136.59;4986428;28;20053;-82
2022/09/20 07:40:26;;;;;;;38.60;36.60;;;;;;;15.97;100.00;101148.09;4999562;28;20047;-82
2022/09/20 07:42:54;;;;;;;37.85;35.95;;;;;;;15.21;100.00;101138.88;5002854;28;20050;-80
2022/09/20 07:45:21;;;;;;;35.42;33.65;;;;;;;16.61;100.00;101145.53;4988401;28;20130;-81
2022/09/20 07:47:49;;;;;;;38.95;36.60;;;;;;;15.69;100.00;101140.72;4990825;28;20065;-79
2022/09/20 07:50:19;;;;;;;39.15;37.05;;;;;;;16.01;100.00;101135.88;4987662;28;20074;-82
2022/09/20 07:52:46;;;;;;;39.33;37.22;;;;;;;15.91;100.00;101143.66;4996155;28;20137;-80
2022/09/20 07:55:13;;;;;;;36.00;34.00;;;;;;;15.97;100.00;101156.94;4993234;28;20046;-80
2022/09/20 07:57:44;;;;;;;36.08;34.20;;;;;;;14.94;100.00;101139.22;4996229;28;20090;-82
2022/09/20 08:00:35;;;;;;;33.17;31.27;;;;;;;15.53;100.00;101134.13;4995190;28;20050;-79
2022/09/20 08:03:08;;;;;;;34.25;32.38;;;;;;;15.63;100.00;101134.38;4990952;28;20125;-82
2022/09/20 08:05:39;;;;;;;35.60;33.60;;;;;;;17.21;100.00;101131.75;4994744;28;20062;-80
2022/09/20 08:08:16;;;;;;;34.08;32.17;;;;;;;17.82;100.00;101135.56;4991272;28;20487;-80
2022/09/20 08:10:57;;;;;;;34.67;32.58;;;;;;;16.97;100.00;101135.56;4995104;28;20054;-82
2022/09/20 08:13:24;;;;;;;35.20;33.50;;;;;;;16.82;100.00;101126.16;4988517;28;20050;-79
2022/09/20 08:16:06;;;;;;;35.22;33.33;;;;;;;16.11;100.00;101125.41;4989554;28;20055;-78
2022/09/20 08:18:47;;;;;;;38.38;36.30;;;;;;;17.56;100.00;101126.22;4994052;28;20046;-80
2022/09/20 08:21:15;;;;;;;34.17;32.28;;;;;;;17.60;95.75;101121.97;4993456;28;20126;-82
2022/09/20 08:23:49;;;;;;;35.17;33.28;;;;;;;16.13;100.00;101117.94;4995360;28;20128;-78
2022/09/20 08:26:19;;;;;;;35.88;34.08;;;;;;;16.76;100.00;101110.19;4992282;28;20059;-77
2022/09/20 08:28:51;;;;;;;34.17;32.25;;;;;;;16.77;100.00;101117.22;4993634;28;20050;-82
2022/09/20 08:31:20;;;;;;;37.92;35.67;;;;;;;16.30;100.00;101125.28;4995937;28;20065;-79
2022/09/20 08:33:50;;;;;;;35.80;33.85;;;;;;;18.11;100.00;101110.47;4993570;28;20047;-80
2022/09/20 08:36:23;;;;;;;37.95;36.15;;;;;;;18.65;93.87;101113.34;4996936;28;20038;-82
2022/09/20 08:38:50;;;;;;;37.08;35.28;;;;;;;17.05;100.00;101121.78;4994151;28;20125;-81
2022/09/20 08:41:22;;;;;;;39.83;38.00;;;;;;;17.32;92.50;101117.47;5001228;28;20050;-78
2022/09/20 08:43:54;;;;;;;38.10;36.17;;;;;;;17.55;92.08;101118.38;4989825;28;20050;-82
2022/09/20 08:46:26;;;;;;;34.53;32.83;;;;;;;17.20;89.98;101111.34;4999201;28;20045;-85
2022/09/20 08:48:54;;;;;;;35.58;33.67;;;;;;;18.25;90.88;101104.50;4992820;28;20050;-80
2022/09/20 08:51:22;;;;;;;34.92;32.72;;;;;;;17.50;85.95;101105.69;4989037;28;20114;-81
2022/09/20 08:53:55;;;;;;;36.42;34.25;;;;;;;18.68;85.54;101096.72;4999943;28;20050;-78
2022/09/20 08:56:22;;;;;;;;;;;;;;;18.10;91.19;101085.47;5003711;28;20046;-80
2022/09/20 08:58:52;;;;;;;36.42;34.42;;;;;;;18.58;78.62;101093.88;5003015;28;20199;-82
2022/09/20 09:01:22;;;;;;;34.30;32.25;;;;;;;18.53;77.91;101086.56;4994132;28;20069;-79
2022/09/20 09:04:03;;;;;;;38.10;35.90;;;;;;;19.20;74.77;101078.19;4992681;28;20082;-80
2022/09/20 09:06:34;;;;;;;35.40;33.30;;;;;;;18.72;80.05;101079.78;4999317;28;20081;-81
2022/09/20 09:09:00;;;;;;;38.28;36.35;;;;;;;17.82;69.49;101079.13;5000070;28;20457;-80
2022/09/20 09:11:27;;;;;;;39.80;37.47;;;;;;;17.63;80.38;101078.50;4989437;28;20463;-80
2022/09/20 09:14:00;;;;;;;37.28;35.28;;;;;;;17.66;79.68;101081.78;4995040;28;20483;-80
2022/09/20 09:16:30;;;;;;;39.28;37.28;;;;;;;18.03;87.91;101074.03;4992916;28;20048;-79
2022/09/20 09:19:00;;;;;;;34.65;32.85;;;;;;;18.49;79.98;101066.63;4991118;28;20470;-80
2022/09/20 09:21:35;;;;;;;38.78;36.53;;;;;;;18.34;71.29;101061.88;4990365;28;20109;-82
2022/09/20 09:24:08;;;;;;;39.70;37.65;;;;;;;19.37;63.81;101051.16;4994934;28;20073;-79
2022/09/20 09:26:42;;;;;;;38.72;36.83;;;;;;;18.87;73.45;101057.66;4997196;28;20046;-81
2022/09/20 09:29:19;;;;;;;36.60;34.50;;;;;;;18.78;66.51;101056.50;4996454;28;20046;-80
2022/09/20 09:31:48;;;;;;;38.22;36.42;;;;;;;18.29;68.53;101059.91;4997652;28;20541;-79
2022/09/20 09:34:25;;;;;;;36.28;34.38;;;;;;;18.94;79.76;101046.69;4991709;28;20497;-80
2022/09/20 09:36:56;;;;;;;32.47;30.58;;;;;;;18.15;65.24;101061.31;4994136;28;20130;-82
2022/09/20 09:39:27;;;;;;;33.50;31.70;;;;;;;17.50;71.74;101054.69;5000119;28;20060;-81
2022/09/20 09:41:59;;;;;;;31.13;29.42;;;;;;;17.65;77.64;101050.63;5001806;28;20434;-79
2022/09/20 09:44:27;;;;;;;;;;;;;;;19.32;75.78;101045.72;4994112;28;20137;-79
2022/09/20 09:46:55;;;;;;;35.63;33.83;;;;;;;18.46;60.51;101045.59;4990300;28;19976;-82
2022/09/20 09:49:32;;;;;;;32.50;30.70;;;;;;;19.51;60.29;101032.66;4999646;28;20073;-80
2022/09/20 09:52:08;;;;;;;32.63;30.83;;;;;;;18.92;60.05;101036.19;4999496;28;20060;-81
2022/09/20 09:54:39;;;;;;;32.72;30.92;;;;;;;18.71;63.14;101039.72;4997066;28;20053;-79
2022/09/20 09:57:37;;;;;;;31.98;30.08;;;;;;;17.99;70.15;101032.63;4998603;28;20453;-80
2022/09/20 10:00:10;;;;;;;35.45;33.65;;;;;;;19.50;63.46;101025.66;4979601;28;20054;-80
2022/09/20 10:03:05;;;;;;;33.85;32.15;;;;;;;19.28;63.24;101017.69;4998561;28;20062;-79
2022/09/20 10:05:42;;;;;;;33.42;31.63;;;;;;;20.07;60.60;101024.19;4992842;28;20077;-81
2022/09/20 10:08:20;;;;;;;32.47;30.75;;;;;;;20.28;59.16;101031.31;4991531;28;20116;-80
2022/09/20 10:10:59;;;;;;;33.97;32.17;;;;;;;21.12;51.58;101018.59;5005094;28;20057;-79
2022/09/20 10:13:32;;;;;;;40.42;38.63;;;;;;;20.37;52.25;101028.91;4998058;28;20074;-80
2022/09/20 10:16:06;;;;;;;41.10;39.05;;;;;;;20.71;57.85;101026.63;4993217;28;20050;-79
2022/09/20 10:18:42;;;;;;;34.97;33.17;;;;;;;20.72;54.07;101025.53;5000637;28;20568;-78
2022/09/20 10:21:24;;;;;;;39.30;37.20;;;;;;;18.69;61.12;101031.88;4996741;28;20050;-78
2022/09/20 10:24:14;;;;;;;39.73;37.77;;;;;;;19.49;52.83;101013.28;4994338;28;20088;-82
2022/09/20 10:27:14;;;;;;;45.83;43.72;;;;;;;20.55;55.30;101025.78;4995373;28;20297;-81
2022/09/20 10:29:56;;;;;;;39.25;37.35;;;;;;;20.54;52.34;101016.03;4994502;28;20054;-82
2022/09/20 10:32:38;;;;;;;42.25;40.05;;;;;;;20.36;51.73;101016.47;4995228;28;20050;-81
2022/09/20 10:35:41;;;;;;;40.80;38.78;;;;;;;19.95;52.39;101020.88;4994910;28;20057;-83
2022/09/20 10:38:13;;;;;;;;;;;;;;;21.94;55.82;101027.47;4964452;28;20050;-82
2022/09/20 10:43:49;;;;;;;35.80;33.95;;;;;;;20.40;46.92;101032.97;4991220;28;20155;-79
2022/09/20 10:46:27;;;;;;;36.95;35.15;;;;;;;20.55;55.19;101014.19;4996869;28;20042;-79
2022/09/20 10:49:03;;;;;;;36.35;34.53;;;;;;;21.78;49.39;101015.06;4992724;28;20054;-79
2022/09/20 10:51:42;;;;;;;41.10;39.10;;;;;;;20.89;52.23;101021.81;4994850;28;20076;-79
2022/09/20 10:54:21;;;;;;;35.30;33.35;;;;;;;21.60;55.69;101011.03;4990499;28;20069;-79
2022/09/20 10:56:55;;;;;;;38.28;36.45;;;;;;;20.03;47.08;101018.50;4993334;28;20053;-80
2022/09/20 10:59:35;;;;;;;35.13;33.42;;;;;;;21.16;46.93;101002.66;4994426;28;20050;-79
2022/09/20 11:02:32;;;;;;;30.77;29.17;;;;;;;21.37;52.76;101004.31;4994029;28;20049;-79
2022/09/20 11:05:23;;;;;;;35.50;33.60;;;;;;;21.06;47.53;101000.78;4993908;28;20046;-78
2022/09/20 11:08:01;;;;;;;36.55;34.65;;;;;;;21.39;49.45;101007.56;4995556;28;20050;-83
2022/09/20 11:10:35;;;;;;;34.17;32.38;;;;;;;21.08;47.53;101005.91;4990521;28;20050;-79
2022/09/20 11:13:07;;;;;;;31.73;30.05;;;;;;;21.32;46.40;101003.47;4990830;28;20477;-82
2022/09/20 11:15:42;;;;;;;31.38;29.58;;;;;;;21.51;45.79;101012.66;4990259;28;20052;-80
2022/09/20 11:18:19;;;;;;;32.40;30.55;;;;;;;21.67;43.62;101005.38;4994491;28;20498;-81
2022/09/20 11:20:54;;;;;;;33.25;31.65;;;;;;;21.17;43.74;100991.59;4996432;28;20077;-79
2022/09/20 11:23:35;;;;;;;32.53;30.92;;;;;;;22.49;54.29;100997.00;4989393;28;20117;-85
2022/09/20 11:26:10;;;;;;;35.90;34.00;;;;;;;22.11;51.44;100991.19;4994278;28;20053;-82
2022/09/20 11:28:43;;;;;;;36.47;34.67;;;;;;;20.14;45.25;100993.19;5006604;28;20141;-80
2022/09/20 11:31:20;;;;;;;37.95;35.95;;;;;;;20.68;52.70;100985.88;4996494;28;20050;-81
2022/09/20 11:34:11;;;;;;;31.52;29.83;;;;;;;20.01;46.38;100988.28;4994213;28;20116;-81
2022/09/20 11:36:51;;;;;;;31.10;29.40;;;;;;;20.17;47.67;100985.66;4994342;28;20448;-81
2022/09/20 11:39:30;;;;;;;29.90;28.20;;;;;;;20.31;53.81;100984.94;4988322;28;20043;-84
2022/09/20 11:41:59;;;;;;;30.90;29.27;;;;;;;19.97;54.65;100980.97;4998856;28;20371;-80
2022/09/20 11:44:35;;;;;;;31.90;30.00;;;;;;;20.09;51.50;100973.50;4996347;28;20530;-80
2022/09/20 11:47:10;;;;;;;34.25;32.35;;;;;;;21.59;46.60;100973.50;4991324;28;20086;-82
2022/09/20 11:49:55;;;;;;;34.65;32.65;;;;;;;21.35;45.07;100984.03;4992575;28;20406;-84
2022/09/20 11:52:34;;;;;;;33.58;31.67;;;;;;;22.34;44.23;100962.72;4997879;28;20376;-81
2022/09/20 11:55:20;;;;;;;31.70;30.00;;;;;;;20.48;45.33;100973.91;4989772;28;20459;-81
2022/09/20 11:58:02;;;;;;;32.63;30.83;;;;;;;21.61;44.49;100963.22;4990540;28;20130;-80
2022/09/20 12:00:31;;;;;;;31.65;30.00;;;;;;;21.41;44.10;100961.34;4995481;28;20054;-82
2022/09/20 12:03:03;;;;;;;34.67;32.72;;;;;;;19.62;46.84;100963.53;4987220;28;20062;-79
2022/09/20 12:05:37;;;;;;;30.00;28.40;;;;;;;21.55;47.00;100965.13;4994429;28;20068;-84
2022/09/20 12:08:10;;;;;;;34.38;32.78;;;;;;;22.06;53.44;100958.72;4998728;28;20713;-82
2022/09/20 12:10:42;;;;;;;34.53;32.63;;;;;;;21.86;42.46;100957.72;5001186;28;20440;-84
2022/09/20 12:13:23;;;;;;;35.15;33.25;;;;;;;22.04;54.25;100969.03;5001099;28;20098;-82
2022/09/20 12:16:05;;;;;;;37.08;35.08;;;;;;;19.45;56.90;100975.28;4995385;28;20125;-81
2022/09/20 12:19:07;;;;;;;35.93;33.60;;;;;;;20.44;46.51;100969.31;4995750;28;20054;-80
2022/09/20 12:22:04;;;;;;;36.40;34.30;;;;;;;21.45;46.73;100962.41;4992741;28;20306;-85
2022/09/20 12:24:38;;;;;;;32.60;30.90;;;;;;;21.91;52.54;100956.94;4974289;28;20054;-81
2022/09/20 12:27:56;;;;;;;34.45;32.50;;;;;;;20.16;46.76;100949.81;5002878;28;20053;-83
2022/09/20 12:30:37;;;;;;;34.13;31.95;;;;;;;20.97;52.34;100959.19;4998959;28;20116;-84
2022/09/20 12:33:23;;;;;;;35.83;33.72;;;;;;;22.60;48.98;100957.94;5000682;28;20046;-81
2022/09/20 12:36:14;;;;;;;32.53;30.63;;;;;;;22.05;42.90;100957.94;4996901;28;20058;-83
2022/09/20 12:39:00;;;;;;;32.60;30.70;;;;;;;21.63;43.84;100956.44;4990699;28;20046;-82
2022/09/20 12:41:31;;;;;;;30.50;28.50;;;;;;;19.74;47.05;100966.06;4995341;28;20046;-78
2022/09/20 12:44:04;;;;;;;29.73;27.77;;;;;;;19.61;48.95;100954.63;5010634;28;20046;-79
2022/09/20 12:46:42;;;;;;;31.25;29.05;;;;;;;21.01;46.86;100955.66;5004261;28;20394;-80
2022/09/20 12:52:59;;;;;;;31.73;29.60;;;;;;;20.36;47.26;100944.50;4978396;28;20109;-83
2022/09/20 12:55:49;;;;;;;29.55;27.75;;;;;;;20.43;45.99;100944.22;4999549;28;20054;-79
2022/09/20 12:58:23;;;;;;;33.00;31.20;;;;;;;20.60;48.26;100949.41;4990179;28;20142;-80
2022/09/20 13:01:35;;;;;;;36.67;34.67;;;;;;;21.35;54.06;100947.00;4992445;28;20046;-79
2022/09/20 13:04:39;;;;;;;39.93;37.83;;;;;;;21.90;46.64;100942.56;5000071;28;20107;-81
2022/09/20 13:07:44;;;;;;;38.20;36.10;;;;;;;21.57;44.52;100952.13;4992649;28;20660;-80
2022/09/20 13:10:39;;;;;;;41.42;39.13;;;;;;;21.92;44.73;100950.41;4998638;28;20137;-81
2022/09/20 13:13:30;;;;;;;39.88;37.65;;;;;;;22.20;44.91;100951.69;4990985;28;20054;-83
2022/09/20 13:15:58;;;;;;;31.73;29.83;;;;;;;21.58;46.16;100944.84;4990215;28;20509;-78
2022/09/20 13:18:34;;;;;;;32.63;30.60;;;;;;;21.39;46.67;100948.13;4999844;28;20042;-80
2022/09/20 13:21:06;;;;;;;33.08;30.95;;;;;;;21.37;49.68;100946.78;4997606;28;20050;-80
2022/09/20 13:23:45;;;;;;;33.80;31.70;;;;;;;21.09;49.73;100951.63;4989308;28;20474;-80